createdAt,value
2022-10-06T00:02:13.099Z,7.78
2022-10-06T00:04:39.623Z,2.85
2022-10-06T00:07:06.125Z,6.75
2022-10-06T00:09:32.737Z,10.13
2022-10-06T00:11:59.287Z,6.13
2022-10-06T00:14:26.380Z,7.47
2022-10-06T00:16:53.059Z,11.85
2022-10-06T00:19:19.588Z,9.98
2022-10-06T00:21:46.132Z,5.20
2022-10-06T00:24:12.680Z,8.02
2022-10-06T00:26:39.183Z,9.63
2022-10-06T00:29:05.844Z,6.07
2022-10-06T00:31:34.512Z,6.70
2022-10-06T00:34:01.124Z,11.05
2022-10-06T00:36:28.452Z,11.18
2022-10-06T00:38:56.494Z,7.60
2022-10-06T00:41:23.035Z,6.13
2022-10-06T00:43:54.740Z,9.45
2022-10-06T00:46:35.593Z,9.13
2022-10-06T00:49:06.917Z,9.75
2022-10-06T00:51:34.675Z,8.32
2022-10-06T00:54:01.401Z,10.52
2022-10-06T00:56:28.418Z,5.25
2022-10-06T00:58:55.000Z,15.63
2022-10-06T01:01:21.628Z,10.35
2022-10-06T01:03:55.686Z,6.68
2022-10-06T01:06:22.219Z,7.28
2022-10-06T01:08:49.072Z,8.63
2022-10-06T01:11:16.262Z,11.82
2022-10-06T01:13:44.242Z,15.50
2022-10-06T01:16:19.737Z,13.80
2022-10-06T01:18:51.729Z,8.95
2022-10-06T01:21:39.764Z,7.63
2022-10-06T01:24:12.265Z,13.80
2022-10-06T01:26:42.423Z,8.52
2022-10-06T01:29:09.549Z,16.33
2022-10-06T01:31:37.680Z,11.73
2022-10-06T01:34:04.680Z,11.75
2022-10-06T01:36:31.181Z,15.25
2022-10-06T01:38:57.806Z,12.77
2022-10-06T01:41:25.532Z,10.32
2022-10-06T01:43:52.239Z,13.73
2022-10-06T01:46:21.162Z,20.73
2022-10-06T01:48:48.019Z,13.32
2022-10-06T01:51:16.222Z,16.80
2022-10-06T01:53:43.121Z,12.88
2022-10-06T01:56:09.872Z,17.60
2022-10-06T01:58:36.497Z,11.35
2022-10-06T02:01:09.736Z,10.48
2022-10-06T02:03:38.087Z,11.13
2022-10-06T02:06:05.091Z,12.25
2022-10-06T02:08:33.037Z,14.38
2022-10-06T02:11:09.720Z,16.50
2022-10-06T02:13:40.658Z,18.25
2022-10-06T02:16:08.492Z,19.17
2022-10-06T02:18:35.722Z,11.07
2022-10-06T02:21:02.945Z,14.80
2022-10-06T02:23:30.268Z,12.55
2022-10-06T02:26:01.155Z,18.17
2022-10-06T02:28:29.143Z,16.42
2022-10-06T02:31:01.151Z,12.43
2022-10-06T02:33:27.974Z,7.25
2022-10-06T02:35:55.932Z,16.65
2022-10-06T02:38:24.394Z,19.80
2022-10-06T02:40:51.685Z,14.07
2022-10-06T02:43:18.390Z,16.55
2022-10-06T02:45:55.962Z,7.88
2022-10-06T02:48:24.775Z,11.43
2022-10-06T02:51:02.816Z,11.27
2022-10-06T02:53:29.954Z,14.00
2022-10-06T02:56:01.408Z,8.07
2022-10-06T03:01:03.389Z,22.50
2022-10-06T03:03:30.847Z,10.40
2022-10-06T03:06:21.659Z,17.42
2022-10-06T03:08:58.541Z,14.65
2022-10-06T03:11:30.697Z,27.10
2022-10-06T03:13:57.680Z,13.15
2022-10-06T03:16:30.138Z,9.90
2022-10-06T03:18:58.876Z,11.75
2022-10-06T03:21:30.331Z,15.45
2022-10-06T03:23:57.597Z,14.10
2022-10-06T03:26:28.428Z,11.63
2022-10-06T03:28:56.165Z,14.57
2022-10-06T03:31:24.318Z,13.95
2022-10-06T03:33:52.559Z,16.33
2022-10-06T03:36:21.108Z,13.57
2022-10-06T03:38:48.232Z,14.57
2022-10-06T03:41:19.484Z,17.27
2022-10-06T03:46:16.198Z,9.02
2022-10-06T03:48:42.835Z,17.23
2022-10-06T03:51:14.307Z,10.27
2022-10-06T03:53:44.285Z,11.02
2022-10-06T03:56:16.192Z,15.50
2022-10-06T03:58:45.301Z,12.88
2022-10-06T04:01:14.666Z,15.50
2022-10-06T04:03:41.513Z,8.60
2022-10-06T04:06:12.137Z,14.02
2022-10-06T04:08:39.404Z,11.95
2022-10-06T04:11:33.411Z,15.57
2022-10-06T04:14:05.547Z,18.13
2022-10-06T04:16:40.604Z,16.80
2022-10-06T04:19:09.937Z,17.58
2022-10-06T04:21:40.502Z,13.20
2022-10-06T04:24:10.735Z,13.80
2022-10-06T04:26:41.837Z,14.70
2022-10-06T04:29:08.366Z,14.10
2022-10-06T04:31:37.070Z,16.90
2022-10-06T04:34:06.055Z,12.05
2022-10-06T04:36:36.183Z,21.27
2022-10-06T04:39:04.406Z,9.52
2022-10-06T04:41:35.672Z,17.08
2022-10-06T04:44:05.967Z,22.15
2022-10-06T04:46:48.955Z,18.75
2022-10-06T04:49:20.662Z,17.13
2022-10-06T04:51:50.369Z,17.42
2022-10-06T04:54:18.892Z,20.25
2022-10-06T04:56:46.920Z,28.52
2022-10-06T04:59:15.392Z,17.75
2022-10-06T05:01:43.941Z,18.92
2022-10-06T05:04:12.568Z,22.95
2022-10-06T05:06:41.540Z,20.00
2022-10-06T05:09:14.566Z,16.13
2022-10-06T05:11:48.261Z,20.83
2022-10-06T05:14:17.924Z,23.48
2022-10-06T05:16:47.372Z,17.45
2022-10-06T05:19:14.657Z,22.00
2022-10-06T05:21:41.886Z,13.23
2022-10-06T05:24:11.188Z,22.52
2022-10-06T05:26:38.451Z,14.88
2022-10-06T05:29:08.892Z,13.50
2022-10-06T05:31:38.879Z,22.77
2022-10-06T05:34:06.097Z,14.93
2022-10-06T05:36:33.902Z,15.52
2022-10-06T05:39:01.477Z,17.77
2022-10-06T05:41:34.629Z,14.02
2022-10-06T05:44:04.449Z,15.65
2022-10-06T05:46:33.660Z,21.27
2022-10-06T05:49:07.789Z,19.48
2022-10-06T05:51:35.948Z,23.65
2022-10-06T05:54:07.253Z,16.55
2022-10-06T05:56:35.980Z,24.98
2022-10-06T05:59:03.816Z,20.60
2022-10-06T06:01:40.228Z,16.38
2022-10-06T06:04:13.600Z,21.95
2022-10-06T06:09:18.295Z,21.73
2022-10-06T06:11:48.778Z,16.85
2022-10-06T06:14:19.203Z,21.48
2022-10-06T06:16:48.576Z,25.55
2022-10-06T06:19:15.133Z,20.33
2022-10-06T06:21:43.574Z,16.10
2022-10-06T06:24:10.894Z,22.92
2022-10-06T06:26:37.931Z,22.80
2022-10-06T06:29:06.172Z,20.35
2022-10-06T06:31:40.141Z,9.63
2022-10-06T06:34:07.759Z,24.10
2022-10-06T06:36:37.211Z,19.25
2022-10-06T06:39:09.135Z,21.10
2022-10-06T06:41:38.676Z,18.48
2022-10-06T06:44:11.591Z,26.35
2022-10-06T06:46:44.723Z,20.40
2022-10-06T06:49:16.378Z,18.00
2022-10-06T06:51:50.369Z,18.55
2022-10-06T06:54:19.742Z,17.30
2022-10-06T06:56:51.852Z,19.05
2022-10-06T06:59:20.389Z,11.43
2022-10-06T07:01:49.775Z,23.15
2022-10-06T07:04:19.736Z,20.10
2022-10-06T07:06:57.861Z,21.88
2022-10-06T07:09:28.255Z,24.02
2022-10-06T07:12:10.243Z,28.75
2022-10-06T07:14:56.744Z,13.40
2022-10-06T07:17:42.966Z,27.20
2022-10-06T07:20:28.859Z,21.35
2022-10-06T07:23:16.154Z,23.98
2022-10-06T07:25:42.727Z,13.77
2022-10-06T07:28:12.182Z,17.00
2022-10-06T07:30:41.078Z,20.40
2022-10-06T07:33:17.974Z,17.50
2022-10-06T07:35:45.268Z,19.38
2022-10-06T07:38:13.781Z,18.75
2022-10-06T07:41:14.660Z,15.00
2022-10-06T07:43:33.668Z,16.75
2022-10-06T07:46:02.195Z,17.35
2022-10-06T07:48:39.005Z,21.38
2022-10-06T07:51:13.749Z,16.98
2022-10-06T07:53:41.413Z,20.92
2022-10-06T07:56:20.646Z,16.05
2022-10-06T07:58:51.327Z,29.83
2022-10-06T08:01:20.193Z,21.98
2022-10-06T08:03:48.502Z,23.88
2022-10-06T08:06:17.101Z,22.02
2022-10-06T08:08:47.109Z,24.30
2022-10-06T08:11:17.129Z,19.80
2022-10-06T08:13:45.280Z,16.73
2022-10-06T08:16:15.934Z,24.17
2022-10-06T08:18:47.211Z,16.55
2022-10-06T08:23:43.171Z,24.02
2022-10-06T08:26:11.636Z,20.58
2022-10-06T08:28:38.661Z,19.05
2022-10-06T08:31:11.893Z,15.23
2022-10-06T08:33:39.538Z,15.68
2022-10-06T08:36:08.580Z,18.70
2022-10-06T08:38:37.172Z,16.75
2022-10-06T08:41:35.407Z,19.42
2022-10-06T08:44:06.950Z,16.10
2022-10-06T08:46:50.283Z,15.77
2022-10-06T08:49:22.000Z,18.13
2022-10-06T08:52:30.533Z,15.32
2022-10-06T08:55:21.307Z,15.10
2022-10-06T08:58:19.899Z,18.40
2022-10-06T09:00:46.472Z,15.30
2022-10-06T09:03:18.235Z,22.35
2022-10-06T09:05:44.814Z,18.13
2022-10-06T09:08:38.781Z,18.92
2022-10-06T09:11:28.001Z,19.27
2022-10-06T09:14:17.219Z,15.75
2022-10-06T09:16:49.031Z,22.50
2022-10-06T09:19:25.775Z,15.80
2022-10-06T09:21:54.881Z,19.05
2022-10-06T09:24:35.014Z,20.38
2022-10-06T09:27:16.598Z,19.23
2022-10-06T09:29:43.129Z,20.30
2022-10-06T09:32:10.912Z,20.35
2022-10-06T09:34:40.841Z,25.70
2022-10-06T09:37:12.819Z,12.90
2022-10-06T09:39:44.933Z,15.98
2022-10-06T09:42:35.739Z,15.77
2022-10-06T09:45:04.905Z,15.75
2022-10-06T09:47:38.482Z,12.95
2022-10-06T09:50:25.391Z,22.23
2022-10-06T09:52:57.670Z,19.70
2022-10-06T09:55:28.469Z,16.67
2022-10-06T09:57:57.117Z,16.52
2022-10-06T10:00:27.793Z,14.85
2022-10-06T10:02:59.977Z,13.88
2022-10-06T10:05:29.156Z,14.98
2022-10-06T10:08:14.074Z,18.40
2022-10-06T10:10:41.155Z,17.65
2022-10-06T10:13:20.943Z,13.32
2022-10-06T10:15:55.919Z,11.65
2022-10-06T10:18:28.104Z,13.90
2022-10-06T10:21:05.310Z,10.23
2022-10-06T10:23:42.047Z,10.68
2022-10-06T10:26:26.918Z,11.85
2022-10-06T10:29:21.479Z,15.15
2022-10-06T10:31:55.467Z,14.85
2022-10-06T10:34:46.748Z,11.75
2022-10-06T10:37:24.205Z,12.77
2022-10-06T10:40:17.343Z,8.82
2022-10-06T10:42:51.782Z,10.63
2022-10-06T10:45:34.316Z,15.05
2022-10-06T10:48:06.645Z,13.27
2022-10-06T10:50:49.768Z,12.20
2022-10-06T10:53:36.548Z,9.88
2022-10-06T10:56:08.319Z,10.32
2022-10-06T10:58:40.528Z,9.73
2022-10-06T11:01:14.268Z,8.07
2022-10-06T11:03:41.856Z,8.10
2022-10-06T11:06:27.236Z,12.88
2022-10-06T11:09:04.022Z,9.07
2022-10-06T11:11:54.987Z,8.40
2022-10-06T11:14:36.099Z,10.20
2022-10-06T11:17:44.331Z,9.35
2022-10-06T11:20:29.467Z,20.23
2022-10-06T11:23:32.184Z,7.68
2022-10-06T11:26:13.328Z,6.50
2022-10-06T11:28:45.270Z,10.75
2022-10-06T11:31:30.520Z,10.32
2022-10-06T11:34:00.625Z,7.40
2022-10-06T11:36:48.724Z,8.73
2022-10-06T11:39:30.783Z,8.45
2022-10-06T11:42:11.167Z,10.52
2022-10-06T11:44:42.108Z,7.97
2022-10-06T11:47:12.057Z,8.00
2022-10-06T11:49:51.338Z,9.93
2022-10-06T11:52:17.763Z,13.30
2022-10-06T11:54:52.460Z,8.55
2022-10-06T11:57:24.018Z,9.95
2022-10-06T12:00:03.222Z,10.95
2022-10-06T12:02:33.505Z,10.35
2022-10-06T12:08:34.810Z,7.13
2022-10-06T12:11:01.848Z,11.38
2022-10-06T12:19:50.465Z,11.75
2022-10-06T12:22:50.246Z,13.25
2022-10-06T12:25:46.980Z,10.60
2022-10-06T12:28:33.894Z,8.75
2022-10-06T12:31:25.381Z,10.82
2022-10-06T12:33:52.508Z,10.55
2022-10-06T12:36:22.619Z,9.88
2022-10-06T12:39:07.013Z,9.80
2022-10-06T12:42:01.993Z,11.05
2022-10-06T12:44:40.684Z,9.43
2022-10-06T12:47:21.043Z,7.88
2022-10-06T12:49:59.932Z,10.85
2022-10-06T12:52:35.160Z,10.40
2022-10-06T12:55:14.492Z,7.50
2022-10-06T12:57:50.667Z,7.85
2022-10-06T13:00:23.890Z,10.02
2022-10-06T13:02:53.641Z,8.25
2022-10-06T13:05:20.227Z,8.73
2022-10-06T13:08:01.241Z,6.05
2022-10-06T13:10:32.381Z,10.27
2022-10-06T13:12:59.612Z,7.93
2022-10-06T13:15:34.545Z,8.98
2022-10-06T13:18:10.615Z,10.43
2022-10-06T13:20:40.813Z,6.00
2022-10-06T13:23:26.730Z,10.00
2022-10-06T13:26:01.372Z,12.60
2022-10-06T13:28:36.900Z,10.43
2022-10-06T13:31:22.928Z,7.63
2022-10-06T13:34:13.056Z,9.70
2022-10-06T13:36:41.414Z,8.38
2022-10-06T13:39:13.925Z,12.57
2022-10-06T13:41:57.413Z,9.60
2022-10-06T13:44:26.764Z,9.95
2022-10-06T13:46:56.018Z,8.10
2022-10-06T13:49:26.159Z,8.75
2022-10-06T13:51:54.112Z,6.13
2022-10-06T13:54:20.829Z,8.52
2022-10-06T13:56:47.403Z,8.85
2022-10-06T13:59:30.975Z,13.10
2022-10-06T14:02:19.467Z,10.80
2022-10-06T14:05:19.917Z,6.55
2022-10-06T14:07:47.384Z,8.32
2022-10-06T14:10:19.174Z,9.60
2022-10-06T14:12:46.443Z,7.07
2022-10-06T14:15:22.605Z,9.90
2022-10-06T14:17:59.819Z,9.95
2022-10-06T14:20:42.271Z,10.88
2022-10-06T14:23:43.904Z,4.15
2022-10-06T14:28:47.177Z,10.80
2022-10-06T14:31:14.868Z,10.55
2022-10-06T14:33:41.889Z,7.50
2022-10-06T14:36:19.019Z,5.78
2022-10-06T14:38:49.468Z,8.70
2022-10-06T14:41:19.290Z,5.70
2022-10-06T14:43:47.457Z,6.97
2022-10-06T14:46:15.447Z,6.75
2022-10-06T14:48:42.081Z,5.95
2022-10-06T14:51:09.488Z,8.63
2022-10-06T14:53:39.334Z,7.07
2022-10-06T14:56:10.219Z,7.40
2022-10-06T14:58:38.660Z,5.05
2022-10-06T15:01:09.124Z,4.93
2022-10-06T15:03:36.090Z,6.60
2022-10-06T15:06:23.756Z,10.25
2022-10-06T15:08:55.095Z,8.40
2022-10-06T15:11:22.714Z,7.40
2022-10-06T15:13:49.497Z,5.97
2022-10-06T15:16:17.456Z,9.20
2022-10-06T15:18:44.639Z,10.20
2022-10-06T15:21:11.621Z,7.60
2022-10-06T15:23:38.962Z,7.68
2022-10-06T15:26:24.685Z,6.63
2022-10-06T15:29:03.302Z,8.93
2022-10-06T15:31:42.871Z,11.80
2022-10-06T15:34:12.108Z,10.32
2022-10-06T15:36:40.548Z,8.13
2022-10-06T15:39:13.890Z,7.45
2022-10-06T15:41:42.735Z,9.20
2022-10-06T15:44:10.409Z,7.03
2022-10-06T15:46:38.551Z,4.63
2022-10-06T15:49:16.422Z,6.93
2022-10-06T15:51:45.597Z,10.98
2022-10-06T15:54:13.349Z,7.40
2022-10-06T15:56:39.934Z,8.73
2022-10-06T15:59:06.775Z,7.90
2022-10-06T16:01:43.324Z,9.48
2022-10-06T16:04:25.304Z,7.75
2022-10-06T16:06:55.948Z,6.15
2022-10-06T16:09:25.046Z,8.27
2022-10-06T16:11:52.315Z,8.05
2022-10-06T16:14:19.202Z,8.48
2022-10-06T16:16:46.760Z,9.43
2022-10-06T16:19:14.319Z,10.40
2022-10-06T16:21:41.072Z,9.18
2022-10-06T16:24:07.653Z,8.55
2022-10-06T16:26:34.423Z,5.68
2022-10-06T16:29:00.981Z,5.55
2022-10-06T16:31:27.574Z,7.32
2022-10-06T16:33:54.149Z,5.63
2022-10-06T16:36:20.798Z,6.85
2022-10-06T16:38:51.135Z,6.97
2022-10-06T16:41:18.233Z,3.75
2022-10-06T16:43:45.748Z,11.68
2022-10-06T16:46:18.626Z,6.53
2022-10-06T16:48:46.782Z,8.48
2022-10-06T16:51:18.305Z,7.30
2022-10-06T16:54:01.735Z,9.70
2022-10-06T16:56:48.479Z,10.07
2022-10-06T16:59:16.829Z,9.50
2022-10-06T17:01:46.148Z,6.95
2022-10-06T17:04:20.826Z,5.88
2022-10-06T17:06:50.119Z,7.30
2022-10-06T17:09:18.890Z,6.65
2022-10-06T17:11:54.454Z,9.82
2022-10-06T17:14:21.771Z,7.93
2022-10-06T17:16:50.759Z,12.38
2022-10-06T17:19:18.954Z,7.95
2022-10-06T17:21:48.699Z,10.70
2022-10-06T17:24:19.725Z,10.93
2022-10-06T17:26:49.623Z,8.15
2022-10-06T17:29:21.360Z,14.68
2022-10-06T17:31:50.793Z,7.38
2022-10-06T17:34:21.471Z,9.32
2022-10-06T17:39:20.491Z,6.78
2022-10-06T17:41:48.573Z,7.85
2022-10-06T17:44:18.811Z,8.48
2022-10-06T17:46:46.000Z,6.03
2022-10-06T17:49:14.994Z,6.88
2022-10-06T17:51:45.067Z,7.07
2022-10-06T17:54:16.141Z,8.88
2022-10-06T17:56:45.643Z,10.48
2022-10-06T17:59:36.567Z,11.75
2022-10-06T18:02:03.764Z,11.18
2022-10-06T18:04:33.040Z,6.07
2022-10-06T18:07:00.118Z,10.25
2022-10-06T18:09:29.961Z,5.13
2022-10-06T18:12:01.155Z,8.70
2022-10-06T18:14:32.326Z,9.07
2022-10-06T18:17:01.361Z,7.57
2022-10-06T18:19:35.511Z,6.03
2022-10-06T18:22:10.337Z,8.80
2022-10-06T18:24:37.696Z,10.02
2022-10-06T18:27:06.478Z,7.55
2022-10-06T18:29:37.847Z,10.40
2022-10-06T18:37:39.686Z,6.38
2022-10-06T18:40:09.700Z,8.73
2022-10-06T18:42:36.526Z,9.27
2022-10-06T18:45:22.282Z,6.90
2022-10-06T18:48:08.546Z,7.75
2022-10-06T18:50:35.420Z,9.93
2022-10-06T18:53:04.212Z,7.25
2022-10-06T18:55:31.681Z,8.77
2022-10-06T18:57:58.833Z,12.57
2022-10-06T19:00:26.358Z,8.32
2022-10-06T19:02:55.469Z,13.23
2022-10-06T19:05:23.126Z,13.80
2022-10-06T19:07:52.374Z,7.25
2022-10-06T19:10:19.435Z,10.98
2022-10-06T19:12:46.688Z,9.40
2022-10-06T19:15:16.544Z,8.88
2022-10-06T19:17:46.862Z,13.55
2022-10-06T19:20:13.662Z,13.93
2022-10-06T19:22:43.512Z,9.68
2022-10-06T19:25:10.311Z,8.55
2022-10-06T19:27:37.032Z,7.32
2022-10-06T19:30:04.425Z,9.75
2022-10-06T19:32:34.455Z,13.02
2022-10-06T19:35:01.242Z,9.05
2022-10-06T19:37:29.155Z,17.00
2022-10-06T19:39:55.897Z,12.98
2022-10-06T19:42:40.684Z,15.02
2022-10-06T19:45:08.214Z,11.68
2022-10-06T19:47:34.767Z,13.75
2022-10-06T19:50:05.873Z,4.65
2022-10-06T19:52:34.618Z,7.10
2022-10-06T19:55:01.102Z,10.88
2022-10-06T19:57:29.364Z,7.03
2022-10-06T19:59:56.004Z,10.80
2022-10-06T20:02:23.091Z,14.20
2022-10-06T20:04:50.430Z,17.08
2022-10-06T20:07:16.927Z,9.90
2022-10-06T20:09:44.037Z,14.50
2022-10-06T20:12:10.623Z,11.25
2022-10-06T20:14:37.218Z,11.15
2022-10-06T20:17:03.785Z,11.60
2022-10-06T20:19:30.976Z,6.80
2022-10-06T20:21:57.925Z,7.85
2022-10-06T20:24:24.864Z,7.80
2022-10-06T20:26:52.456Z,9.77
2022-10-06T20:29:22.843Z,12.05
2022-10-06T20:31:55.051Z,10.30
2022-10-06T20:34:24.509Z,6.47
2022-10-06T20:36:55.730Z,9.82
2022-10-06T20:39:41.646Z,15.25
2022-10-06T20:42:13.888Z,10.30
2022-10-06T20:44:42.254Z,15.40
2022-10-06T20:47:10.318Z,11.57
2022-10-06T20:49:36.934Z,6.70
2022-10-06T20:52:04.414Z,8.23
2022-10-06T20:54:34.513Z,13.45
2022-10-06T20:57:03.235Z,13.73
2022-10-06T20:59:29.944Z,6.60
2022-10-06T21:01:59.883Z,13.15
2022-10-06T21:04:30.210Z,11.95
2022-10-06T21:06:57.390Z,11.15
2022-10-06T21:09:28.670Z,4.13
2022-10-06T21:14:24.187Z,14.75
2022-10-06T21:16:51.893Z,12.57
2022-10-06T21:19:19.584Z,9.25
2022-10-06T21:21:52.225Z,11.25
2022-10-06T21:24:19.369Z,13.25
2022-10-06T21:26:46.150Z,10.60
2022-10-06T21:29:16.265Z,6.88
2022-10-06T21:31:44.187Z,12.18
2022-10-06T21:34:10.794Z,10.63
2022-10-06T21:36:37.846Z,8.38
2022-10-06T21:39:05.842Z,9.73
2022-10-06T21:41:38.603Z,9.65
2022-10-06T21:44:09.843Z,9.00
2022-10-06T21:49:06.783Z,11.82
2022-10-06T21:51:33.848Z,13.18
2022-10-06T21:54:01.329Z,8.68
2022-10-06T21:56:30.706Z,12.40
2022-10-06T21:58:58.026Z,13.65
2022-10-06T22:01:30.446Z,17.80
2022-10-06T22:03:58.528Z,11.68
2022-10-06T22:06:25.194Z,14.70
2022-10-06T22:08:52.020Z,14.73
2022-10-06T22:11:21.224Z,15.98
2022-10-06T22:13:50.075Z,14.20
2022-10-06T22:16:19.503Z,14.07
2022-10-06T22:18:46.793Z,9.52
2022-10-06T22:21:21.948Z,8.73
2022-10-06T22:23:59.976Z,15.55
2022-10-06T22:26:27.849Z,14.43
2022-10-06T22:28:55.959Z,16.73
2022-10-06T22:31:26.068Z,17.05
2022-10-06T22:33:57.805Z,17.80
2022-10-06T22:36:25.676Z,16.35
2022-10-06T22:38:52.799Z,9.15
2022-10-06T22:41:19.704Z,15.10
2022-10-06T22:43:46.405Z,9.60
2022-10-06T22:46:13.522Z,19.90
2022-10-06T22:48:40.645Z,8.40
2022-10-06T22:51:07.821Z,15.18
2022-10-06T22:53:34.664Z,13.38
2022-10-06T22:56:02.376Z,13.50
2022-10-06T22:58:29.387Z,19.05
2022-10-06T23:00:56.345Z,12.48
2022-10-06T23:03:23.517Z,16.92
2022-10-06T23:05:55.395Z,22.80
2022-10-06T23:08:22.132Z,18.08
2022-10-06T23:10:48.798Z,13.57
2022-10-06T23:13:15.607Z,14.75
2022-10-06T23:15:42.295Z,11.80
2022-10-06T23:18:09.128Z,11.27
2022-10-06T23:20:35.758Z,21.02
2022-10-06T23:23:02.509Z,18.88
2022-10-06T23:25:29.146Z,14.88
2022-10-06T23:27:55.766Z,21.98
2022-10-06T23:30:24.613Z,14.85
2022-10-06T23:32:51.332Z,16.70
2022-10-06T23:35:18.084Z,15.60
2022-10-06T23:37:44.821Z,16.58
2022-10-06T23:40:11.918Z,9.95
2022-10-06T23:42:38.774Z,15.95
2022-10-06T23:45:07.662Z,12.90
2022-10-06T23:47:34.343Z,17.90
2022-10-06T23:50:01.065Z,19.15
2022-10-06T23:52:27.864Z,21.67
2022-10-06T23:54:54.532Z,19.08
2022-10-06T23:57:21.668Z,18.08
2022-10-06T23:59:48.301Z,20.33
